Flight Track Log - Related Links

Times and Time Zones

All times are in EDT time to prevent confusion due to time zone crossing. See the N1926A flight status page for this flight to view local times or setup timezone preferences in your user account.

Time Position Orientation Groundspeed Altitude Reporting Facility
EDT Latitude Longitude Course Direction KTS MPH feet Rate Location/Type
Tue 04:22:57 PM 36.0481 -93.8200 104° East 208 239 11,900  Level Memphis Center
Tue 04:23:00 PM 36.0113 -93.7225 122° Southeast  Level FlightAware Approximate
Tue 04:23:57 PM 36.0269 -93.7575 113° Southeast 202 232 13,700  Level Memphis Center
Tue 04:24:00 PM 35.9811 -93.6432 112° Southeast  Level FlightAware Approximate
Tue 04:24:56 PM 36.0014 -93.6950 117° Southeast 202 232 15,400  Level Memphis Center
Tue 04:25:00 PM 35.9540 -93.5620 112° Southeast  Level FlightAware Approximate
Tue 04:25:56 PM 35.9739 -93.6350 120° Southeast 202 232 17,100  Level Memphis Center
Tue 04:26:00 PM 35.9245 -93.4824 122° Southeast  Level FlightAware Approximate
Tue 04:26:57 PM 35.9483 -93.5722 117° Southeast 202 232 18,600  Level Memphis Center
Tue 04:27:00 PM 35.8872 -93.4077 122° Southeast  Level FlightAware Approximate
Tue 04:27:56 PM 35.9186 -93.5122 121° Southeast 202 232 20,000  Level Memphis Center
Tue 04:28:00 PM 35.8590 -93.3283 104° East  Level FlightAware Approximate
Tue 04:28:57 PM 35.8892 -93.4444 118° Southeast 212 244 21,300  Level Memphis Center
Tue 04:29:57 PM 35.8633 -93.3819 117° Southeast 207 238 22,600 1,210 Climbing Memphis Center
Tue 04:30:56 PM 35.8400 -93.3147 113° Southeast 207 238 23,700 1,150 Climbing Memphis Center
Tue 04:31:57 PM 35.8186 -93.2497 112° Southeast 202 232 24,900 650 Climbing Memphis Center
Tue 04:32:56 PM 35.7911 -93.1772 115° Southeast 209 241 25,000 50 Climbing Memphis Center
Tue 04:33:56 PM 35.7575 -93.0994 118° Southeast 235 270 25,000  Level Memphis Center
Tue 04:34:57 PM 35.7258 -93.0164 115° Southeast 255 293 25,000  Level Memphis Center
Tue 04:35:56 PM 35.6942 -92.9336 115° Southeast 262 302 25,000  Level Memphis Center
Tue 04:36:56 PM 35.6644 -92.8536 115° Southeast 267 307 25,000  Level Memphis Center
Tue 04:37:57 PM 35.6328 -92.7683 115° Southeast 268 308 25,000  Level Memphis Center
Tue 04:38:56 PM 35.5972 -92.6650 113° Southeast 278 320 25,000  Level Memphis Center
Tue 04:39:57 PM 35.5656 -92.5800 115° Southeast 278 320 25,000  Level Memphis Center
Tue 04:40:57 PM 35.5336 -92.4950 115° Southeast 278 320 25,000  Level Memphis Center
Tue 04:41:57 PM 35.4994 -92.4075 116° Southeast 278 320 25,000  Level Memphis Center
Tue 04:42:56 PM 35.4656 -92.3250 117° Southeast 278 320 25,000  Level Memphis Center
Tue 04:43:57 PM 35.4292 -92.2400 118° Southeast 278 320 25,000  Level Memphis Center
Tue 04:44:57 PM 35.3928 -92.1578 118° Southeast 278 320 25,000  Level Memphis Center
Tue 04:45:56 PM 35.3586 -92.0806 118° Southeast 278 320 25,000  Level Memphis Center
Tue 04:46:56 PM 35.3219 -91.9958 118° Southeast 273 314 25,000  Level Memphis Center
Tue 04:47:57 PM 35.2878 -91.9114 116° Southeast 273 314 25,000  Level Memphis Center
Tue 04:48:57 PM 35.2533 -91.8292 117° Southeast 273 314 25,000  Level Memphis Center
Tue 04:49:57 PM 35.2186 -91.7447 117° Southeast 273 314 25,000  Level Memphis Center
Tue 04:50:56 PM 35.1819 -91.6628 119° Southeast 273 314 25,000  Level Memphis Center
Tue 04:51:57 PM 35.1494 -91.5786 115° Southeast 273 314 25,000  Level Memphis Center
Tue 04:52:57 PM 35.1106 -91.4969 120° Southeast 273 314 25,000  Level Memphis Center
Tue 04:53:56 PM 35.0781 -91.4125 115° Southeast 273 314 25,000  Level Memphis Center
Tue 04:54:57 PM 35.0411 -91.3311 119° Southeast 273 314 25,000  Level Memphis Center
Tue 04:55:57 PM 35.0042 -91.2469 118° Southeast 273 314 25,000  Level Memphis Center
Tue 04:56:57 PM 34.9672 -91.1656 119° Southeast 273 314 25,000  Level Memphis Center
Tue 04:57:57 PM 34.9364 -91.0817 114° Southeast 273 314 25,000  Level Memphis Center
Tue 04:58:57 PM 34.9014 -90.9978 117° Southeast 273 314 25,000  Level Memphis Center
Tue 04:59:57 PM 34.8642 -90.9164 119° Southeast 273 314 25,000  Level Memphis Center
Tue 05:00:56 PM 34.8311 -90.8428 119° Southeast 273 314 25,000  Level Memphis Center
Tue 05:01:57 PM 34.7961 -90.7617 118° Southeast 273 314 25,000  Level Memphis Center
Tue 05:02:57 PM 34.7567 -90.6806 121° Southeast 273 314 25,000  Level Memphis Center
Tue 05:03:56 PM 34.7214 -90.5972 117° Southeast 273 314 25,000  Level Memphis Center
Tue 05:04:57 PM 34.6858 -90.5161 118° Southeast 273 314 25,000  Level Memphis Center
Tue 05:05:56 PM 34.6506 -90.4328 117° Southeast 273 314 25,000  Level Memphis Center
Tue 05:06:57 PM 34.6150 -90.3547 119° Southeast 273 314 25,000  Level Memphis Center
Tue 05:07:57 PM 34.5797 -90.2689 117° Southeast 273 314 25,000  Level Memphis Center
Tue 05:08:57 PM 34.5397 -90.1806 119° Southeast 273 314 25,000  Level Memphis Center
Tue 05:09:57 PM 34.5042 -90.1000 118° Southeast 273 314 25,000  Level Memphis Center
Tue 05:10:57 PM 34.4664 -90.0169 119° Southeast 273 314 25,000  Level Memphis Center
Tue 05:11:57 PM 34.4308 -89.9367 118° Southeast 273 314 25,000  Level Memphis Center
Tue 05:12:57 PM 34.3928 -89.8539 119° Southeast 273 314 25,000  Level Memphis Center
Tue 05:13:57 PM 34.3569 -89.7733 118° Southeast 273 314 25,000  Level Memphis Center
Tue 05:14:57 PM 34.3211 -89.6908 118° Southeast 273 314 25,000  Level Memphis Center
Tue 05:15:57 PM 34.2831 -89.6106 120° Southeast 273 314 25,000  Level Memphis Center
Tue 05:16:57 PM 34.2492 -89.5281 116° Southeast 273 314 25,000  Level Memphis Center
Tue 05:17:57 PM 34.2131 -89.4453 118° Southeast 273 314 25,000  Level Memphis Center
Tue 05:18:57 PM 34.1750 -89.3631 119° Southeast 273 314 25,000  Level Memphis Center
Tue 05:19:57 PM 34.1389 -89.2831 119° Southeast 273 314 25,000  Level Memphis Center
Tue 05:20:57 PM 34.1006 -89.1983 119° Southeast 273 314 25,000  Level Memphis Center
Tue 05:21:57 PM 34.0683 -89.1261 118° Southeast 273 314 25,000  Level Memphis Center
Tue 05:22:56 PM 34.0300 -89.0439 119° Southeast 273 314 25,000  Level Memphis Center
Tue 05:23:57 PM 33.9917 -88.9617 119° Southeast 273 314 25,000  Level Memphis Center
Tue 05:24:57 PM 33.9553 -88.8797 118° Southeast 278 320 25,000  Level Memphis Center
Tue 05:25:57 PM 33.9144 -88.8028 123° Southeast 278 320 25,000  Level Memphis Center
Tue 05:26:57 PM 33.8781 -88.7208 118° Southeast 278 320 25,000  Level Memphis Center
Tue 05:27:57 PM 33.8394 -88.6392 120° Southeast 273 314 25,000  Level Memphis Center
Tue 05:28:57 PM 33.8006 -88.5550 119° Southeast 278 320 25,000  Level Memphis Center
Tue 05:29:57 PM 33.7639 -88.4731 118° Southeast 278 320 25,000  Level Memphis Center
Tue 05:30:57 PM 33.7208 -88.3942 123° Southeast 278 320 25,000  Level Memphis Center
Tue 05:31:57 PM 33.6819 -88.3128 120° Southeast 278 320 25,000 -59 Level Memphis Center
Tue 05:34:20 PM 33.5953 -88.1139 118° Southeast 279 321 24,800 -236 Descending Atlanta Center
Tue 05:35:20 PM 33.5564 -88.0272 118° Southeast 284 327 24,200 -400 Descending Atlanta Center
Tue 05:36:20 PM 33.5194 -87.9408 117° Southeast 289 333 24,000 -100 Descending Atlanta Center
Tue 05:37:20 PM 33.4806 -87.8567 119° Southeast 289 333 24,000  Level Atlanta Center
Tue 05:38:20 PM 33.4414 -87.7728 119° Southeast 289 333 24,000  Level Atlanta Center
Tue 05:39:20 PM 33.4000 -87.6917 121° Southeast 289 333 24,000  Level Atlanta Center
Tue 05:40:20 PM 33.3544 -87.6000 121° Southeast 289 333 24,000 -500 Level Atlanta Center
Tue 05:41:20 PM 33.3131 -87.5139 120° Southeast 294 338 23,000 -1,300 Descending Atlanta Center
Tue 05:42:20 PM 33.2658 -87.4200 121° Southeast 307 353 21,400 -1,250 Descending Atlanta Center
Tue 05:43:20 PM 33.2222 -87.3289 120° Southeast 317 365 20,500 -950 Descending Atlanta Center
Tue 05:44:20 PM 33.1786 -87.2381 120° Southeast 322 371 19,500 -1,200 Descending Atlanta Center
Tue 05:45:20 PM 33.1375 -87.1397 117° Southeast 322 371 18,100 -1,400 Descending Atlanta Center
Tue 05:46:20 PM 33.0958 -87.0539 120° Southeast 322 371 16,700 -1,400 Descending Atlanta Center
Tue 05:47:20 PM 33.0519 -86.9608 119° Southeast 322 371 15,300 2,150 Descending Atlanta Center
Tue 05:48:20 PM 33.0083 -86.8700 120° Southeast 322 371 21,000 -1,500 Climbing Atlanta Center
Tue 05:49:20 PM 32.9622 -86.7819 122° Southeast 322 371 12,300 -5,100 Descending Atlanta Center
Tue 05:50:20 PM 32.9203 -86.6964 120° Southeast 317 365 10,800 -1,500 Descending Atlanta Center
Tue 05:51:20 PM 32.8761 -86.6086 121° Southeast 312 359 9,300 -1,400 Descending Atlanta Center
Tue 05:52:20 PM 32.8381 -86.5283 119° Southeast 299 344 8,000 -1,550 Descending Atlanta Center
Tue 05:53:20 PM 32.7961 -86.4456 121° Southeast 294 338 6,200 -1,050 Descending Atlanta Center
Tue 05:54:20 PM 32.7536 -86.3681 123° Southeast 294 338 5,900 -150 Descending Atlanta Center
Tue 05:55:20 PM 32.7114 -86.2806 120° Southeast 287 330 5,900 7,550 Level Atlanta Center
Tue 05:56:20 PM 32.6711 -86.1956 119° Southeast 287 330 21,000 15,100 Climbing Atlanta Center
Tue 05:58:00 PM 32.6118 -86.0736 121° Southeast  Level FlightAware Approximate
Tue 06:05:00 PM 32.5149 -85.8762 121° Southeast  Level Estimated
Tue 06:06:00 PM 32.5149 -85.8762 121° Southeast  Level Estimated
Tue 06:07:00 PM 32.5149 -85.8762 121° Southeast  Level Estimated
Tue 06:08:00 PM 32.5149 -85.8762 121° Southeast  Level Estimated
Tue 06:09:00 PM 32.5149 -85.8762 121° Southeast  Level Estimated
Tue 06:10:00 PM 32.5149 -85.8762 121° Southeast  Level Estimated
Tue 06:11:00 PM 32.5149 -85.8762 121° Southeast  Level Estimated

Login

Don't have an account? Register now (free) for customized features, flight alerts, and more!